sensor_id;sensor_type;location;lat;lon;timestamp;pressure;altitude;pressure_sealevel;temperature;humidity
60832;BME280;46665;51.558;-0.448;2024-03-06T00:01:06;101307.94;;;2.76;100.00
60832;BME280;46665;51.558;-0.448;2024-03-06T00:03:50;101305.25;;;2.76;100.00
60832;BME280;46665;51.558;-0.448;2024-03-06T00:06:34;101304.22;;;2.77;100.00
60832;BME280;46665;51.558;-0.448;2024-03-06T00:09:18;101302.34;;;2.78;100.00
60832;BME280;46665;51.558;-0.448;2024-03-06T00:12:02;101305.25;;;2.76;100.00
60832;BME280;46665;51.558;-0.448;2024-03-06T00:14:47;101299.88;;;2.76;100.00
60832;BME280;46665;51.558;-0.448;2024-03-06T00:17:32;101294.91;;;2.73;100.00
60832;BME280;46665;51.558;-0.448;2024-03-06T00:20:16;101298.66;;;2.72;100.00
60832;BME280;46665;51.558;-0.448;2024-03-06T00:22:59;101304.84;;;2.79;100.00
60832;BME280;46665;51.558;-0.448;2024-03-06T00:25:43;101300.47;;;2.78;100.00
60832;BME280;46665;51.558;-0.448;2024-03-06T00:28:27;101293.66;;;2.76;100.00
60832;BME280;46665;51.558;-0.448;2024-03-06T00:31:11;101311.88;;;2.74;100.00
60832;BME280;46665;51.558;-0.448;2024-03-06T00:33:55;101302.97;;;2.73;100.00
60832;BME280;46665;51.558;-0.448;2024-03-06T00:36:40;101307.09;;;2.76;100.00
60832;BME280;46665;51.558;-0.448;2024-03-06T00:39:25;101314.53;;;2.80;100.00
60832;BME280;46665;51.558;-0.448;2024-03-06T00:42:09;101300.47;;;2.78;100.00
60832;BME280;46665;51.558;-0.448;2024-03-06T00:44:53;101318.84;;;2.88;100.00
60832;BME280;46665;51.558;-0.448;2024-03-06T00:47:37;101322.94;;;2.97;100.00
60832;BME280;46665;51.558;-0.448;2024-03-06T00:50:21;101320.81;;;3.06;100.00
60832;BME280;46665;51.558;-0.448;2024-03-06T00:53:06;101317.50;;;3.11;100.00
60832;BME280;46665;51.558;-0.448;2024-03-06T00:55:50;101319.53;;;3.15;100.00
60832;BME280;46665;51.558;-0.448;2024-03-06T00:58:34;101321.59;;;3.20;100.00
60832;BME280;46665;51.558;-0.448;2024-03-06T01:01:18;101309.78;;;3.21;100.00
60832;BME280;46665;51.558;-0.448;2024-03-06T01:04:02;101320.50;;;3.28;100.00
60832;BME280;46665;51.558;-0.448;2024-03-06T01:06:46;101325.47;;;3.31;100.00
60832;BME280;46665;51.558;-0.448;2024-03-06T01:09:30;101318.38;;;3.36;100.00
60832;BME280;46665;51.558;-0.448;2024-03-06T01:12:14;101326.03;;;3.39;100.00
60832;BME280;46665;51.558;-0.448;2024-03-06T01:14:58;101326.63;;;3.41;100.00
60832;BME280;46665;51.558;-0.448;2024-03-06T01:17:42;101327.84;;;3.45;100.00
60832;BME280;46665;51.558;-0.448;2024-03-06T01:20:26;101332.41;;;3.45;100.00
60832;BME280;46665;51.558;-0.448;2024-03-06T01:23:09;101326.41;;;3.43;100.00
60832;BME280;46665;51.558;-0.448;2024-03-06T01:25:53;101330.75;;;3.44;100.00
60832;BME280;46665;51.558;-0.448;2024-03-06T01:28:37;101323.28;;;3.46;100.00
60832;BME280;46665;51.558;-0.448;2024-03-06T01:31:21;101328.22;;;3.49;100.00
60832;BME280;46665;51.558;-0.448;2024-03-06T01:34:05;101324.72;;;3.48;100.00
60832;BME280;46665;51.558;-0.448;2024-03-06T01:36:49;101335.91;;;3.52;100.00
60832;BME280;46665;51.558;-0.448;2024-03-06T01:39:33;101333.41;;;3.51;100.00
60832;BME280;46665;51.558;-0.448;2024-03-06T01:42:19;101333.63;;;3.49;100.00
60832;BME280;46665;51.558;-0.448;2024-03-06T01:45:03;101332.59;;;3.50;100.00
60832;BME280;46665;51.558;-0.448;2024-03-06T01:47:48;101343.97;;;3.52;100.00
60832;BME280;46665;51.558;-0.448;2024-03-06T01:50:32;101335.03;;;3.52;100.00
60832;BME280;46665;51.558;-0.448;2024-03-06T01:53:16;101333.44;;;3.44;100.00
60832;BME280;46665;51.558;-0.448;2024-03-06T01:56:03;101348.09;;;3.55;100.00
60832;BME280;46665;51.558;-0.448;2024-03-06T01:58:48;101335.44;;;3.55;100.00
60832;BME280;46665;51.558;-0.448;2024-03-06T02:01:32;101349.06;;;3.60;100.00
60832;BME280;46665;51.558;-0.448;2024-03-06T02:04:16;101342.38;;;3.69;100.00
60832;BME280;46665;51.558;-0.448;2024-03-06T02:07:02;101345.22;;;3.75;100.00
60832;BME280;46665;51.558;-0.448;2024-03-06T02:09:46;101339.84;;;3.75;100.00
60832;BME280;46665;51.558;-0.448;2024-03-06T02:12:30;101345.81;;;3.83;100.00
60832;BME280;46665;51.558;-0.448;2024-03-06T02:15:14;101348.88;;;3.87;100.00
60832;BME280;46665;51.558;-0.448;2024-03-06T02:17:58;101345.53;;;3.91;100.00
60832;BME280;46665;51.558;-0.448;2024-03-06T02:20:42;101350.09;;;3.91;100.00
60832;BME280;46665;51.558;-0.448;2024-03-06T02:23:26;101340.59;;;3.88;100.00
60832;BME280;46665;51.558;-0.448;2024-03-06T02:26:10;101347.56;;;3.96;100.00
60832;BME280;46665;51.558;-0.448;2024-03-06T02:28:55;101346.75;;;3.96;100.00
60832;BME280;46665;51.558;-0.448;2024-03-06T02:31:39;101354.81;;;3.96;100.00
60832;BME280;46665;51.558;-0.448;2024-03-06T02:34:24;101349.66;;;3.94;100.00
60832;BME280;46665;51.558;-0.448;2024-03-06T02:37:08;101345.06;;;3.95;100.00
60832;BME280;46665;51.558;-0.448;2024-03-06T02:39:53;101348.19;;;3.98;100.00
60832;BME280;46665;51.558;-0.448;2024-03-06T02:42:37;101339.50;;;3.96;100.00
60832;BME280;46665;51.558;-0.448;2024-03-06T02:45:22;101336.78;;;3.96;100.00
60832;BME280;46665;51.558;-0.448;2024-03-06T02:48:07;101336.34;;;3.99;100.00
60832;BME280;46665;51.558;-0.448;2024-03-06T02:50:51;101326.19;;;4.01;100.00
60832;BME280;46665;51.558;-0.448;2024-03-06T02:53:35;101329.31;;;3.98;100.00
60832;BME280;46665;51.558;-0.448;2024-03-06T02:56:19;101325.13;;;4.02;100.00
60832;BME280;46665;51.558;-0.448;2024-03-06T02:59:03;101329.47;;;4.03;100.00
60832;BME280;46665;51.558;-0.448;2024-03-06T03:01:47;101320.19;;;3.99;100.00
60832;BME280;46665;51.558;-0.448;2024-03-06T03:04:31;101317.72;;;3.98;100.00
60832;BME280;46665;51.558;-0.448;2024-03-06T03:07:16;101323.50;;;4.01;100.00
60832;BME280;46665;51.558;-0.448;2024-03-06T03:09:59;101335.31;;;4.00;100.00
60832;BME280;46665;51.558;-0.448;2024-03-06T03:12:43;101344.22;;;4.01;100.00
60832;BME280;46665;51.558;-0.448;2024-03-06T03:15:27;101342.19;;;3.96;100.00
60832;BME280;46665;51.558;-0.448;2024-03-06T03:18:11;101343.66;;;3.92;100.00
60832;BME280;46665;51.558;-0.448;2024-03-06T03:20:55;101333.72;;;3.93;100.00
60832;BME280;46665;51.558;-0.448;2024-03-06T03:23:39;101344.06;;;3.96;100.00
60832;BME280;46665;51.558;-0.448;2024-03-06T03:26:23;101348.63;;;3.95;100.00
60832;BME280;46665;51.558;-0.448;2024-03-06T03:29:08;101342.19;;;3.96;100.00
60832;BME280;46665;51.558;-0.448;2024-03-06T03:31:52;101344.50;;;3.93;100.00
60832;BME280;46665;51.558;-0.448;2024-03-06T03:34:36;101347.41;;;3.91;100.00
60832;BME280;46665;51.558;-0.448;2024-03-06T03:37:20;101336.84;;;3.89;100.00
60832;BME280;46665;51.558;-0.448;2024-03-06T03:40:06;101346.63;;;3.84;100.00
60832;BME280;46665;51.558;-0.448;2024-03-06T03:42:50;101335.25;;;3.82;100.00
60832;BME280;46665;51.558;-0.448;2024-03-06T03:45:35;101333.66;;;3.74;100.00
60832;BME280;46665;51.558;-0.448;2024-03-06T03:48:19;101340.28;;;3.72;100.00
60832;BME280;46665;51.558;-0.448;2024-03-06T03:51:03;101341.56;;;3.69;100.00
60832;BME280;46665;51.558;-0.448;2024-03-06T03:53:48;101342.66;;;3.61;100.00
60832;BME280;46665;51.558;-0.448;2024-03-06T03:56:35;101336.00;;;3.64;100.00
60832;BME280;46665;51.558;-0.448;2024-03-06T03:59:19;101349.63;;;3.69;100.00
60832;BME280;46665;51.558;-0.448;2024-03-06T04:02:03;101336.56;;;3.73;100.00
60832;BME280;46665;51.558;-0.448;2024-03-06T04:04:48;101345.19;;;3.81;100.00
60832;BME280;46665;51.558;-0.448;2024-03-06T04:07:32;101334.22;;;3.83;100.00
60832;BME280;46665;51.558;-0.448;2024-03-06T04:10:16;101347.03;;;3.87;100.00
60832;BME280;46665;51.558;-0.448;2024-03-06T04:13:00;101333.31;;;3.89;100.00
60832;BME280;46665;51.558;-0.448;2024-03-06T04:15:44;101340.38;;;3.90;100.00
60832;BME280;46665;51.558;-0.448;2024-03-06T04:18:29;101339.31;;;3.91;100.00
60832;BME280;46665;51.558;-0.448;2024-03-06T04:21:13;101344.09;;;3.89;100.00
60832;BME280;46665;51.558;-0.448;2024-03-06T04:23:58;101347.03;;;3.87;100.00
60832;BME280;46665;51.558;-0.448;2024-03-06T04:26:42;101348.88;;;3.87;100.00
60832;BME280;46665;51.558;-0.448;2024-03-06T04:29:26;101348.66;;;3.88;100.00
60832;BME280;46665;51.558;-0.448;2024-03-06T04:32:10;101352.63;;;3.86;100.00
60832;BME280;46665;51.558;-0.448;2024-03-06T04:34:54;101355.47;;;3.91;100.00
60832;BME280;46665;51.558;-0.448;2024-03-06T04:37:40;101357.28;;;3.97;100.00
60832;BME280;46665;51.558;-0.448;2024-03-06T04:40:24;101362.84;;;4.02;100.00
60832;BME280;46665;51.558;-0.448;2024-03-06T04:43:09;101365.31;;;4.04;100.00
60832;BME280;46665;51.558;-0.448;2024-03-06T04:45:53;101372.34;;;4.05;100.00
60832;BME280;46665;51.558;-0.448;2024-03-06T04:48:37;101370.91;;;4.02;100.00
60832;BME280;46665;51.558;-0.448;2024-03-06T04:51:21;101381.47;;;4.04;100.00
60832;BME280;46665;51.558;-0.448;2024-03-06T04:54:05;101380.88;;;4.02;100.00
60832;BME280;46665;51.558;-0.448;2024-03-06T04:56:49;101380.41;;;4.05;100.00
60832;BME280;46665;51.558;-0.448;2024-03-06T04:59:33;101382.09;;;4.06;100.00
60832;BME280;46665;51.558;-0.448;2024-03-06T05:02:17;101374.06;;;3.99;100.00
60832;BME280;46665;51.558;-0.448;2024-03-06T05:05:01;101390.38;;;4.04;100.00
60832;BME280;46665;51.558;-0.448;2024-03-06T05:07:45;101384.81;;;3.99;100.00
60832;BME280;46665;51.558;-0.448;2024-03-06T05:10:29;101384.81;;;3.99;100.00
60832;BME280;46665;51.558;-0.448;2024-03-06T05:13:13;101394.31;;;4.02;100.00
60832;BME280;46665;51.558;-0.448;2024-03-06T05:15:57;101395.16;;;4.02;100.00
60832;BME280;46665;51.558;-0.448;2024-03-06T05:18:41;101398.91;;;4.01;100.00
60832;BME280;46665;51.558;-0.448;2024-03-06T05:21:25;101405.09;;;4.02;100.00
60832;BME280;46665;51.558;-0.448;2024-03-06T05:24:09;101398.53;;;3.98;100.00
60832;BME280;46665;51.558;-0.448;2024-03-06T05:26:53;101407.19;;;4.00;100.00
60832;BME280;46665;51.558;-0.448;2024-03-06T05:29:37;101407.41;;;3.98;100.00
60832;BME280;46665;51.558;-0.448;2024-03-06T05:32:20;101416.31;;;3.99;100.00
60832;BME280;46665;51.558;-0.448;2024-03-06T05:35:04;101412.00;;;3.98;100.00
60832;BME280;46665;51.558;-0.448;2024-03-06T05:37:48;101416.09;;;4.00;100.00
60832;BME280;46665;51.558;-0.448;2024-03-06T05:40:32;101423.50;;;4.05;100.00
60832;BME280;46665;51.558;-0.448;2024-03-06T05:43:21;101420.00;;;4.04;100.00
60832;BME280;46665;51.558;-0.448;2024-03-06T05:46:05;101425.38;;;4.04;100.00
60832;BME280;46665;51.558;-0.448;2024-03-06T05:48:48;101419.19;;;4.04;100.00
60832;BME280;46665;51.558;-0.448;2024-03-06T05:51:34;101418.63;;;3.95;100.00
60832;BME280;46665;51.558;-0.448;2024-03-06T05:54:19;101437.03;;;3.98;100.00
60832;BME280;46665;51.558;-0.448;2024-03-06T05:57:04;101440.81;;;3.90;100.00
60832;BME280;46665;51.558;-0.448;2024-03-06T05:59:47;101428.81;;;3.86;100.00
60832;BME280;46665;51.558;-0.448;2024-03-06T06:02:32;101443.72;;;3.89;100.00
60832;BME280;46665;51.558;-0.448;2024-03-06T06:05:16;101443.00;;;3.75;100.00
60832;BME280;46665;51.558;-0.448;2024-03-06T06:08:03;101443.63;;;3.71;100.00
60832;BME280;46665;51.558;-0.448;2024-03-06T06:10:47;101449.03;;;3.64;100.00
60832;BME280;46665;51.558;-0.448;2024-03-06T06:13:31;101446.16;;;3.59;100.00
60832;BME280;46665;51.558;-0.448;2024-03-06T06:16:15;101441.59;;;3.59;100.00
60832;BME280;46665;51.558;-0.448;2024-03-06T06:18:59;101457.75;;;3.59;100.00
60832;BME280;46665;51.558;-0.448;2024-03-06T06:21:43;101454.06;;;3.54;100.00
60832;BME280;46665;51.558;-0.448;2024-03-06T06:24:27;101459.63;;;3.59;100.00
60832;BME280;46665;51.558;-0.448;2024-03-06T06:27:11;101459.59;;;3.65;100.00
60832;BME280;46665;51.558;-0.448;2024-03-06T06:29:55;101460.41;;;3.73;100.00
60832;BME280;46665;51.558;-0.448;2024-03-06T06:32:39;101465.72;;;3.79;100.00
60832;BME280;46665;51.558;-0.448;2024-03-06T06:35:24;101460.78;;;3.76;100.00
60832;BME280;46665;51.558;-0.448;2024-03-06T06:38:08;101464.28;;;3.77;100.00
60832;BME280;46665;51.558;-0.448;2024-03-06T06:40:52;101471.56;;;3.69;100.00
60832;BME280;46665;51.558;-0.448;2024-03-06T06:43:36;101465.44;;;3.62;100.00
60832;BME280;46665;51.558;-0.448;2024-03-06T06:46:21;101456.91;;;3.65;100.00
60832;BME280;46665;51.558;-0.448;2024-03-06T06:49:05;101457.94;;;3.64;100.00
60832;BME280;46665;51.558;-0.448;2024-03-06T06:51:48;101463.91;;;3.73;100.00
60832;BME280;46665;51.558;-0.448;2024-03-06T06:54:32;101468.84;;;3.83;100.00
60832;BME280;46665;51.558;-0.448;2024-03-06T06:57:16;101469.50;;;3.72;100.00
60832;BME280;46665;51.558;-0.448;2024-03-06T07:00:02;101469.94;;;3.68;100.00
60832;BME280;46665;51.558;-0.448;2024-03-06T07:02:54;101473.06;;;3.65;100.00
60832;BME280;46665;51.558;-0.448;2024-03-06T07:05:38;101474.53;;;3.61;100.00
60832;BME280;46665;51.558;-0.448;2024-03-06T07:08:22;101481.97;;;3.59;100.00
60832;BME280;46665;51.558;-0.448;2024-03-06T07:11:06;101479.09;;;3.61;100.00
60832;BME280;46665;51.558;-0.448;2024-03-06T07:13:50;101477.81;;;3.63;100.00
60832;BME280;46665;51.558;-0.448;2024-03-06T07:16:41;101471.22;;;3.59;100.00
60832;BME280;46665;51.558;-0.448;2024-03-06T07:19:26;101486.69;;;3.71;100.00
60832;BME280;46665;51.558;-0.448;2024-03-06T07:22:10;101481.06;;;3.79;100.00
60832;BME280;46665;51.558;-0.448;2024-03-06T07:24:54;101481.25;;;3.84;100.00
60832;BME280;46665;51.558;-0.448;2024-03-06T07:27:39;101488.69;;;3.88;100.00
60832;BME280;46665;51.558;-0.448;2024-03-06T07:30:23;101493.41;;;3.93;100.00
60832;BME280;46665;51.558;-0.448;2024-03-06T07:33:07;101495.22;;;3.99;100.00
60832;BME280;46665;51.558;-0.448;2024-03-06T07:35:51;101508.06;;;4.04;100.00
60832;BME280;46665;51.558;-0.448;2024-03-06T07:38:35;101500.84;;;3.98;100.00
60832;BME280;46665;51.558;-0.448;2024-03-06T07:41:19;101507.63;;;4.07;100.00
60832;BME280;46665;51.558;-0.448;2024-03-06T07:44:03;101504.91;;;4.13;100.00
60832;BME280;46665;51.558;-0.448;2024-03-06T07:46:47;101500.28;;;4.21;100.00
60832;BME280;46665;51.558;-0.448;2024-03-06T07:49:31;101517.44;;;4.26;100.00
60832;BME280;46665;51.558;-0.448;2024-03-06T07:52:15;101506.25;;;4.23;100.00
60832;BME280;46665;51.558;-0.448;2024-03-06T07:54:59;101512.81;;;4.08;100.00
60832;BME280;46665;51.558;-0.448;2024-03-06T07:57:42;101516.09;;;4.10;100.00
60832;BME280;46665;51.558;-0.448;2024-03-06T08:00:26;101517.75;;;4.11;100.00
60832;BME280;46665;51.558;-0.448;2024-03-06T08:03:10;101514.16;;;4.18;100.00
60832;BME280;46665;51.558;-0.448;2024-03-06T08:05:57;101516.41;;;4.27;100.00
60832;BME280;46665;51.558;-0.448;2024-03-06T08:08:41;101519.22;;;4.39;100.00
60832;BME280;46665;51.558;-0.448;2024-03-06T08:11:28;101527.03;;;4.47;100.00
60832;BME280;46665;51.558;-0.448;2024-03-06T08:14:11;101533.00;;;4.56;100.00
60832;BME280;46665;51.558;-0.448;2024-03-06T08:16:58;101524.03;;;4.62;100.00
60832;BME280;46665;51.558;-0.448;2024-03-06T08:19:42;101525.00;;;4.68;100.00
60832;BME280;46665;51.558;-0.448;2024-03-06T08:22:26;101536.97;;;4.78;100.00
60832;BME280;46665;51.558;-0.448;2024-03-06T08:25:12;101541.66;;;4.83;100.00
60832;BME280;46665;51.558;-0.448;2024-03-06T08:27:56;101546.34;;;4.94;100.00
60832;BME280;46665;51.558;-0.448;2024-03-06T08:30:41;101542.72;;;4.82;100.00
60832;BME280;46665;51.558;-0.448;2024-03-06T08:33:24;101547.50;;;4.80;100.00
60832;BME280;46665;51.558;-0.448;2024-03-06T08:36:08;101545.97;;;4.91;100.00
60832;BME280;46665;51.558;-0.448;2024-03-06T08:38:52;101548.50;;;4.86;100.00
60832;BME280;46665;51.558;-0.448;2024-03-06T08:41:36;101552.56;;;4.95;100.00
60832;BME280;46665;51.558;-0.448;2024-03-06T08:44:20;101550.50;;;4.97;100.00
60832;BME280;46665;51.558;-0.448;2024-03-06T08:47:04;101549.81;;;5.02;100.00
60832;BME280;46665;51.558;-0.448;2024-03-06T08:49:48;101556.66;;;5.04;100.00
60832;BME280;46665;51.558;-0.448;2024-03-06T08:52:31;101558.59;;;4.97;100.00
60832;BME280;46665;51.558;-0.448;2024-03-06T08:55:15;101570.06;;;4.86;100.00
60832;BME280;46665;51.558;-0.448;2024-03-06T08:58:00;101561.94;;;4.92;100.00
60832;BME280;46665;51.558;-0.448;2024-03-06T09:00:44;101570.56;;;5.01;100.00
60832;BME280;46665;51.558;-0.448;2024-03-06T09:03:29;101565.31;;;5.06;100.00
60832;BME280;46665;51.558;-0.448;2024-03-06T09:06:13;101559.72;;;5.08;100.00
60832;BME280;46665;51.558;-0.448;2024-03-06T09:08:57;101574.19;;;5.13;100.00
60832;BME280;46665;51.558;-0.448;2024-03-06T09:11:41;101573.72;;;5.16;100.00
60832;BME280;46665;51.558;-0.448;2024-03-06T09:14:28;101578.75;;;5.13;100.00
60832;BME280;46665;51.558;-0.448;2024-03-06T09:17:12;101582.44;;;5.18;100.00
60832;BME280;46665;51.558;-0.448;2024-03-06T09:19:59;101586.56;;;5.21;100.00
60832;BME280;46665;51.558;-0.448;2024-03-06T09:22:43;101587.19;;;5.23;100.00
60832;BME280;46665;51.558;-0.448;2024-03-06T09:25:27;101595.06;;;5.25;100.00
60832;BME280;46665;51.558;-0.448;2024-03-06T09:28:12;101596.25;;;5.29;100.00
60832;BME280;46665;51.558;-0.448;2024-03-06T09:30:56;101592.69;;;5.35;100.00
60832;BME280;46665;51.558;-0.448;2024-03-06T09:33:40;101598.00;;;5.41;100.00
60832;BME280;46665;51.558;-0.448;2024-03-06T09:36:24;101603.69;;;5.52;100.00
60832;BME280;46665;51.558;-0.448;2024-03-06T09:39:09;101600.34;;;5.56;100.00
60832;BME280;46665;51.558;-0.448;2024-03-06T09:41:53;101603.94;;;5.69;100.00
60832;BME280;46665;51.558;-0.448;2024-03-06T09:44:40;101598.94;;;5.72;100.00
60832;BME280;46665;51.558;-0.448;2024-03-06T09:47:24;101596.53;;;5.82;100.00
60832;BME280;46665;51.558;-0.448;2024-03-06T09:50:13;101603.88;;;5.94;100.00
60832;BME280;46665;51.558;-0.448;2024-03-06T09:53:01;101598.56;;;6.05;100.00
60832;BME280;46665;51.558;-0.448;2024-03-06T09:55:46;101605.81;;;6.23;100.00
60832;BME280;46665;51.558;-0.448;2024-03-06T09:58:30;101607.13;;;6.33;100.00
60832;BME280;46665;51.558;-0.448;2024-03-06T10:01:14;101609.94;;;6.26;100.00
60832;BME280;46665;51.558;-0.448;2024-03-06T10:03:58;101613.22;;;6.28;100.00
60832;BME280;46665;51.558;-0.448;2024-03-06T10:06:44;101615.72;;;6.11;100.00
60832;BME280;46665;51.558;-0.448;2024-03-06T10:09:28;101616.91;;;6.15;100.00
60832;BME280;46665;51.558;-0.448;2024-03-06T10:12:17;101614.59;;;6.19;100.00
60832;BME280;46665;51.558;-0.448;2024-03-06T10:15:01;101619.09;;;6.06;100.00
60832;BME280;46665;51.558;-0.448;2024-03-06T10:17:45;101617.75;;;6.16;100.00
60832;BME280;46665;51.558;-0.448;2024-03-06T10:20:35;101618.63;;;6.28;100.00
60832;BME280;46665;51.558;-0.448;2024-03-06T10:23:19;101618.06;;;6.38;100.00
60832;BME280;46665;51.558;-0.448;2024-03-06T10:26:07;101625.03;;;6.45;100.00
60832;BME280;46665;51.558;-0.448;2024-03-06T10:28:51;101623.88;;;6.53;100.00
60832;BME280;46665;51.558;-0.448;2024-03-06T10:31:35;101626.84;;;6.63;100.00
60832;BME280;46665;51.558;-0.448;2024-03-06T10:34:20;101631.22;;;6.64;100.00
60832;BME280;46665;51.558;-0.448;2024-03-06T10:37:04;101619.34;;;6.65;100.00
60832;BME280;46665;51.558;-0.448;2024-03-06T10:39:51;101634.53;;;6.78;100.00
60832;BME280;46665;51.558;-0.448;2024-03-06T10:42:39;101634.91;;;6.82;100.00
60832;BME280;46665;51.558;-0.448;2024-03-06T10:48:18;101636.69;;;6.88;100.00
60832;BME280;46665;51.558;-0.448;2024-03-06T10:51:03;101633.16;;;6.87;100.00
60832;BME280;46665;51.558;-0.448;2024-03-06T10:53:49;101641.88;;;6.89;100.00
60832;BME280;46665;51.558;-0.448;2024-03-06T10:56:33;101644.72;;;6.94;100.00
60832;BME280;46665;51.558;-0.448;2024-03-06T10:59:18;101644.72;;;6.94;100.00
60832;BME280;46665;51.558;-0.448;2024-03-06T11:02:04;101638.56;;;6.87;100.00
60832;BME280;46665;51.558;-0.448;2024-03-06T11:04:48;101639.75;;;6.91;100.00
60832;BME280;46665;51.558;-0.448;2024-03-06T11:07:31;101639.63;;;6.98;100.00
60832;BME280;46665;51.558;-0.448;2024-03-06T11:10:30;101642.47;;;7.03;100.00
60832;BME280;46665;51.558;-0.448;2024-03-06T11:13:21;101646.25;;;7.02;100.00
60832;BME280;46665;51.558;-0.448;2024-03-06T11:16:07;101646.47;;;7.01;100.00
60832;BME280;46665;51.558;-0.448;2024-03-06T11:19:08;101640.72;;;7.09;100.00
60832;BME280;46665;51.558;-0.448;2024-03-06T11:21:52;101645.56;;;7.19;100.00
60832;BME280;46665;51.558;-0.448;2024-03-06T11:24:36;101654.03;;;7.34;100.00
60832;BME280;46665;51.558;-0.448;2024-03-06T11:27:21;101643.13;;;7.52;100.00
60832;BME280;46665;51.558;-0.448;2024-03-06T11:30:07;101644.84;;;7.47;100.00
60832;BME280;46665;51.558;-0.448;2024-03-06T11:32:58;101642.16;;;7.58;100.00
60832;BME280;46665;51.558;-0.448;2024-03-06T11:35:43;101638.75;;;7.75;100.00
60832;BME280;46665;51.558;-0.448;2024-03-06T11:44:26;101644.94;;;8.28;100.00
60832;BME280;46665;51.558;-0.448;2024-03-06T11:47:12;101642.69;;;8.36;100.00
60832;BME280;46665;51.558;-0.448;2024-03-06T11:49:56;101646.78;;;8.51;100.00
60832;BME280;46665;51.558;-0.448;2024-03-06T11:52:41;101660.66;;;8.66;100.00
60832;BME280;46665;51.558;-0.448;2024-03-06T11:55:25;101646.06;;;8.55;100.00
60832;BME280;46665;51.558;-0.448;2024-03-06T11:58:09;101645.88;;;8.45;100.00
60832;BME280;46665;51.558;-0.448;2024-03-06T12:00:55;101643.16;;;8.45;100.00
60832;BME280;46665;51.558;-0.448;2024-03-06T12:03:40;101648.19;;;8.53;100.00
60832;BME280;46665;51.558;-0.448;2024-03-06T12:06:27;101647.94;;;8.55;100.00
60832;BME280;46665;51.558;-0.448;2024-03-06T12:09:11;101652.03;;;8.69;100.00
60832;BME280;46665;51.558;-0.448;2024-03-06T12:11:56;101653.22;;;8.61;100.00
60832;BME280;46665;51.558;-0.448;2024-03-06T12:14:40;101652.50;;;8.66;100.00
60832;BME280;46665;51.558;-0.448;2024-03-06T12:17:24;101643.97;;;8.74;100.00
60832;BME280;46665;51.558;-0.448;2024-03-06T12:20:10;101649.47;;;8.79;100.00
60832;BME280;46665;51.558;-0.448;2024-03-06T12:22:57;101638.59;;;8.62;100.00
60832;BME280;46665;51.558;-0.448;2024-03-06T12:25:41;101639.50;;;8.68;100.00
60832;BME280;46665;51.558;-0.448;2024-03-06T12:28:25;101637.13;;;8.72;100.00
60832;BME280;46665;51.558;-0.448;2024-03-06T12:31:11;101642.38;;;8.78;100.00
60832;BME280;46665;51.558;-0.448;2024-03-06T12:33:59;101639.03;;;8.88;100.00
60832;BME280;46665;51.558;-0.448;2024-03-06T12:36:46;101634.44;;;9.05;100.00
60832;BME280;46665;51.558;-0.448;2024-03-06T12:39:31;101636.66;;;9.25;100.00
60832;BME280;46665;51.558;-0.448;2024-03-06T12:42:16;101636.00;;;9.35;100.00
60832;BME280;46665;51.558;-0.448;2024-03-06T12:45:00;101642.16;;;9.47;100.00
60832;BME280;46665;51.558;-0.448;2024-03-06T12:47:46;101647.69;;;9.52;100.00
60832;BME280;46665;51.558;-0.448;2024-03-06T12:50:32;101631.19;;;9.59;100.00
60832;BME280;46665;51.558;-0.448;2024-03-06T12:53:20;101628.06;;;9.67;100.00
60832;BME280;46665;51.558;-0.448;2024-03-06T12:56:04;101632.16;;;9.70;100.00
60832;BME280;46665;51.558;-0.448;2024-03-06T12:58:49;101634.44;;;9.78;100.00
60832;BME280;46665;51.558;-0.448;2024-03-06T13:01:33;101633.63;;;9.77;100.00
60832;BME280;46665;51.558;-0.448;2024-03-06T13:04:16;101636.88;;;9.80;100.00
60832;BME280;46665;51.558;-0.448;2024-03-06T13:07:00;101636.78;;;9.91;100.00
60832;BME280;46665;51.558;-0.448;2024-03-06T13:09:44;101632.56;;;10.01;100.00
60832;BME280;46665;51.558;-0.448;2024-03-06T13:12:29;101630.91;;;10.22;100.00
60832;BME280;46665;51.558;-0.448;2024-03-06T13:15:13;101639.31;;;10.42;100.00
60832;BME280;46665;51.558;-0.448;2024-03-06T13:17:56;101628.34;;;10.59;100.00
60832;BME280;46665;51.558;-0.448;2024-03-06T13:20:41;101623.84;;;10.75;100.00
60832;BME280;46665;51.558;-0.448;2024-03-06T13:23:25;101624.00;;;10.90;100.00
60832;BME280;46665;51.558;-0.448;2024-03-06T13:26:08;101632.19;;;10.95;100.00
60832;BME280;46665;51.558;-0.448;2024-03-06T13:28:52;101626.75;;;10.95;100.00
60832;BME280;46665;51.558;-0.448;2024-03-06T13:31:36;101622.66;;;10.93;100.00
60832;BME280;46665;51.558;-0.448;2024-03-06T13:34:21;101627.88;;;10.99;100.00
60832;BME280;46665;51.558;-0.448;2024-03-06T13:37:05;101627.94;;;11.04;95.53
60832;BME280;46665;51.558;-0.448;2024-03-06T13:39:53;101625.31;;;10.88;91.24
60832;BME280;46665;51.558;-0.448;2024-03-06T13:42:42;101627.25;;;10.87;93.05
60832;BME280;46665;51.558;-0.448;2024-03-06T13:45:26;101629.00;;;11.03;90.65
60832;BME280;46665;51.558;-0.448;2024-03-06T13:48:14;101626.13;;;11.20;90.25
60832;BME280;46665;51.558;-0.448;2024-03-06T13:50:59;101633.19;;;11.16;82.08
60832;BME280;46665;51.558;-0.448;2024-03-06T13:53:43;101634.94;;;10.95;83.05
60832;BME280;46665;51.558;-0.448;2024-03-06T13:56:27;101627.81;;;10.89;86.11
60832;BME280;46665;51.558;-0.448;2024-03-06T13:59:11;101634.97;;;11.00;89.93
60832;BME280;46665;51.558;-0.448;2024-03-06T14:01:55;101629.53;;;11.00;89.19
60832;BME280;46665;51.558;-0.448;2024-03-06T14:04:39;101632.19;;;10.95;88.65
60832;BME280;46665;51.558;-0.448;2024-03-06T14:07:24;101633.25;;;10.89;88.63
60832;BME280;46665;51.558;-0.448;2024-03-06T14:10:08;101636.63;;;11.01;86.35
60832;BME280;46665;51.558;-0.448;2024-03-06T14:12:53;101635.28;;;11.04;85.48
60832;BME280;46665;51.558;-0.448;2024-03-06T14:15:38;101634.44;;;11.03;84.31
60832;BME280;46665;51.558;-0.448;2024-03-06T14:18:22;101632.56;;;11.04;86.53